Time;durP1;ratioP1;P1;durP2;ratioP2;P2;SDS_P1;SDS_P2;PMS_P1;PMS_P2;Temp;Humidity;BMP_temperature;BMP_pressure;BME280_temperature;BME280_humidity;BME280_pressure;Samples;Min_cycle;Max_cycle;Signal;HPM_P1;HPM_P2
2023/03/23 00:01:01;;;;;;;4.40;2.03;;;12.10;99.90;;;;;;5072990;28;20420;-72
2023/03/23 00:03:28;;;;;;;5.90;2.53;;;12.10;99.90;;;;;;5072466;28;20439;-73
2023/03/23 00:06:02;;;;;;;1.90;1.50;;;12.20;99.90;;;;;;5072486;28;20416;-73
2023/03/23 00:08:28;;;;;;;2.17;1.90;;;12.10;99.90;;;;;;5070629;28;20455;-74
2023/03/23 00:10:56;;;;;;;2.87;2.10;;;12.10;99.90;;;;;;5073690;28;20420;-74
2023/03/23 00:13:25;;;;;;;2.03;1.60;;;12.10;99.90;;;;;;5070154;28;20575;-73
2023/03/23 00:15:56;;;;;;;2.13;1.70;;;12.00;99.90;;;;;;5073568;28;20532;-73
2023/03/23 00:18:22;;;;;;;2.53;1.60;;;12.00;99.90;;;;;;5069203;28;20448;-73
2023/03/23 00:20:49;;;;;;;3.47;1.70;;;11.90;99.90;;;;;;5072965;28;20405;-75
2023/03/23 00:23:18;;;;;;;2.33;2.13;;;11.90;99.90;;;;;;5057572;28;20467;-74
2023/03/23 00:25:46;;;;;;;4.60;1.80;;;11.90;99.90;;;;;;5072476;28;21010;-73
2023/03/23 00:28:12;;;;;;;3.07;1.97;;;11.80;99.90;;;;;;5057326;28;20519;-73
2023/03/23 00:30:39;;;;;;;2.83;2.10;;;11.80;99.90;;;;;;5072589;28;20502;-75
2023/03/23 00:33:04;;;;;;;3.33;2.30;;;11.80;99.90;;;;;;5072530;28;20475;-73
2023/03/23 00:35:30;;;;;;;1.70;1.60;;;11.80;99.90;;;;;;5073243;28;20405;-72
2023/03/23 00:37:58;;;;;;;1.70;1.60;;;11.80;99.90;;;;;;5074369;28;20194;-73
2023/03/23 00:40:24;;;;;;;3.73;2.10;;;11.80;99.90;;;;;;5074700;28;20169;-72
2023/03/23 00:42:50;;;;;;;2.00;1.80;;;11.70;99.90;;;;;;5074813;28;20515;-72
2023/03/23 00:45:16;;;;;;;2.63;1.90;;;11.70;99.90;;;;;;5075240;28;20448;-73
2023/03/23 00:47:46;;;;;;;3.80;2.27;;;11.70;99.90;;;;;;5075733;28;20175;-73
2023/03/23 00:50:13;;;;;;;6.10;1.80;;;11.70;99.90;;;;;;5077246;28;20473;-72
2023/03/23 00:52:40;;;;;;;2.40;1.80;;;11.70;99.90;;;;;;5073832;28;20799;-71
2023/03/23 00:55:06;;;;;;;3.43;1.97;;;11.60;99.90;;;;;;5071032;28;20905;-72
2023/03/23 00:57:32;;;;;;;2.83;2.20;;;11.70;99.90;;;;;;5070641;28;20472;-72
2023/03/23 00:59:57;;;;;;;3.93;1.87;;;11.60;99.90;;;;;;5071269;28;20451;-73
2023/03/23 01:02:24;;;;;;;2.73;2.00;;;11.60;99.90;;;;;;5070578;28;20239;-73
2023/03/23 01:04:52;;;;;;;2.93;2.20;;;11.50;99.90;;;;;;5070457;28;20572;-73
2023/03/23 01:07:19;;;;;;;2.53;2.30;;;11.50;99.90;;;;;;5070402;28;20959;-72
2023/03/23 01:09:45;;;;;;;2.67;2.40;;;11.50;99.90;;;;;;5070406;28;20458;-72
2023/03/23 01:12:11;;;;;;;2.73;2.30;;;11.50;99.90;;;;;;5070270;28;20452;-73
2023/03/23 01:14:36;;;;;;;4.00;2.40;;;11.50;99.90;;;;;;5051347;28;20270;-73
2023/03/23 01:17:02;;;;;;;1.97;1.70;;;11.40;99.90;;;;;;5070978;28;20538;-72
2023/03/23 01:19:27;;;;;;;2.20;2.00;;;11.40;99.90;;;;;;5071009;28;20366;-73
2023/03/23 01:21:53;;;;;;;2.40;2.20;;;11.40;99.90;;;;;;5070481;28;20194;-72
2023/03/23 01:24:19;;;;;;;2.07;1.87;;;11.40;99.90;;;;;;5071097;28;20190;-73
2023/03/23 01:26:45;;;;;;;2.03;1.93;;;11.40;99.90;;;;;;5070654;28;20513;-73
2023/03/23 01:29:11;;;;;;;2.90;1.80;;;11.30;99.90;;;;;;5070781;28;20412;-75
2023/03/23 01:31:37;;;;;;;1.50;1.40;;;11.20;99.90;;;;;;5070674;28;20459;-73
2023/03/23 01:34:03;;;;;;;2.53;2.33;;;11.20;99.90;;;;;;5070636;28;20497;-72
2023/03/23 01:36:32;;;;;;;2.60;2.33;;;11.20;99.90;;;;;;5070352;28;20902;-74
2023/03/23 01:39:00;;;;;;;4.63;2.43;;;11.20;99.90;;;;;;5070570;28;20848;-73
2023/03/23 01:41:26;;;;;;;2.00;1.90;;;11.20;99.90;;;;;;5076068;28;20491;-72
2023/03/23 01:44:05;;;;;;;2.70;2.17;;;11.30;99.90;;;;;;5076718;28;20436;-72
2023/03/23 01:46:33;;;;;;;2.50;1.80;;;11.30;99.90;;;;;;5071221;28;20219;-72
2023/03/23 01:49:07;;;;;;;5.50;3.07;;;11.30;99.90;;;;;;5078589;28;20488;-73
2023/03/23 01:51:39;;;;;;;4.27;1.93;;;11.20;99.90;;;;;;5078386;28;20398;-72
2023/03/23 01:54:08;;;;;;;2.10;1.90;;;11.30;99.90;;;;;;5061047;28;20414;-72
2023/03/23 01:56:45;;;;;;;3.00;2.10;;;11.20;99.90;;;;;;5082075;28;20428;-72
2023/03/23 01:59:12;;;;;;;1.80;1.70;;;11.20;99.90;;;;;;5081705;28;20891;-71
2023/03/23 02:01:44;;;;;;;2.13;1.93;;;11.20;99.90;;;;;;5072645;28;20440;-73
2023/03/23 02:04:11;;;;;;;5.40;2.13;;;11.20;99.90;;;;;;5070576;28;20416;-73
2023/03/23 02:06:36;;;;;;;3.57;2.53;;;11.30;99.90;;;;;;5070189;28;20751;-73
2023/03/23 02:09:03;;;;;;;3.37;2.20;;;11.30;99.90;;;;;;5066287;28;20499;-73
2023/03/23 02:11:29;;;;;;;3.57;1.40;;;11.30;99.90;;;;;;5069838;28;20259;-72
2023/03/23 02:13:54;;;;;;;1.77;1.67;;;11.30;99.90;;;;;;5069755;28;20408;-73
2023/03/23 02:16:23;;;;;;;2.00;1.80;;;11.30;99.90;;;;;;5069836;28;20485;-71
2023/03/23 02:18:57;;;;;;;6.13;2.30;;;11.30;99.90;;;;;;5065479;28;20190;-73
2023/03/23 02:21:49;;;;;;;2.17;1.83;;;11.30;99.90;;;;;;5063956;28;20773;-72
2023/03/23 02:24:56;;;;;;;4.00;2.57;;;11.40;99.90;;;;;;5070003;28;20437;-71
2023/03/23 02:28:02;;;;;;;3.27;1.67;;;11.40;99.90;;;;;;5050901;28;20423;-72
2023/03/23 02:30:37;;;;;;;2.73;2.30;;;11.40;99.90;;;;;;5072862;28;20886;-72
2023/03/23 02:33:29;;;;;;;3.10;1.97;;;11.40;99.90;;;;;;5073774;28;20446;-73
2023/03/23 02:36:03;;;;;;;2.50;2.10;;;11.40;99.90;;;;;;5070406;28;20401;-72
2023/03/23 02:38:43;;;;;;;3.03;2.23;;;11.50;99.90;;;;;;5068042;28;20949;-72
2023/03/23 02:41:11;;;;;;;3.23;2.57;;;11.60;99.90;;;;;;5073556;28;21143;-73
2023/03/23 02:43:42;;;;;;;1.60;1.50;;;11.60;99.90;;;;;;5070695;28;20427;-73
2023/03/23 02:46:10;;;;;;;2.20;2.00;;;11.60;99.90;;;;;;5066012;28;20729;-73
2023/03/23 02:48:38;;;;;;;3.03;2.23;;;11.60;99.90;;;;;;5072980;28;20418;-71
2023/03/23 02:51:05;;;;;;;2.00;1.90;;;11.60;99.90;;;;;;5059400;28;20420;-73
2023/03/23 02:53:34;;;;;;;2.30;2.10;;;11.70;99.90;;;;;;5073275;28;20520;-72
2023/03/23 02:56:02;;;;;;;1.80;1.70;;;11.70;99.90;;;;;;5073112;28;20910;-72
2023/03/23 02:58:29;;;;;;;1.80;1.60;;;11.60;99.90;;;;;;5072960;28;20521;-74
2023/03/23 03:00:56;;;;;;;5.63;1.97;;;11.60;99.90;;;;;;5073162;28;20763;-73
2023/03/23 03:03:25;;;;;;;4.40;1.70;;;11.60;99.90;;;;;;5073582;28;20425;-74
2023/03/23 03:06:49;;;;;;;4.03;1.73;;;11.60;99.90;;;;;;5073194;28;20407;-74
2023/03/23 03:09:45;;;;;;;2.13;1.93;;;11.60;99.90;;;;;;4976538;28;20431;-72
2023/03/23 03:12:34;;;;;;;5.57;2.33;;;11.60;99.90;;;;;;5057879;28;20486;-72
2023/03/23 03:15:31;;;;;;;2.20;1.80;;;11.60;99.90;;;;;;5060927;28;20423;-73
2023/03/23 03:18:17;;;;;;;2.57;1.90;;;11.70;99.90;;;;;;5073006;28;20463;-73
2023/03/23 03:20:50;;;;;;;2.10;1.97;;;11.70;99.90;;;;;;5073547;28;20412;-72
2023/03/23 03:23:19;;;;;;;1.97;1.77;;;11.70;99.90;;;;;;5073203;28;20424;-74
2023/03/23 03:25:49;;;;;;;1.80;1.70;;;11.80;99.90;;;;;;5073592;28;20409;-72
2023/03/23 03:28:21;;;;;;;3.50;2.43;;;11.80;99.90;;;;;;5073391;28;20412;-72
2023/03/23 03:30:53;;;;;;;1.70;1.60;;;11.80;99.90;;;;;;5073424;28;20400;-72
2023/03/23 03:33:20;;;;;;;1.83;1.73;;;11.80;99.90;;;;;;5073496;28;20432;-71
2023/03/23 03:35:47;;;;;;;1.87;1.73;;;11.80;99.90;;;;;;5073346;28;20409;-72
2023/03/23 03:38:12;;;;;;;2.33;1.90;;;11.80;99.90;;;;;;5065956;28;20456;-73
2023/03/23 03:40:39;;;;;;;1.83;1.60;;;11.80;99.90;;;;;;5076666;28;20408;-72
2023/03/23 03:43:05;;;;;;;3.23;1.73;;;11.80;99.90;;;;;;5062921;28;20210;-73
2023/03/23 03:45:31;;;;;;;3.03;1.90;;;11.80;99.90;;;;;;5075815;28;20408;-73
2023/03/23 03:47:57;;;;;;;3.10;1.70;;;11.80;99.90;;;;;;5060201;28;20577;-73
2023/03/23 03:50:23;;;;;;;2.00;1.83;;;11.70;99.90;;;;;;5073284;28;20191;-72
2023/03/23 03:52:48;;;;;;;2.50;2.23;;;11.60;99.90;;;;;;5078004;28;20198;-72
2023/03/23 03:55:14;;;;;;;1.80;1.70;;;11.60;99.90;;;;;;5077698;28;20404;-74
2023/03/23 03:57:41;;;;;;;2.13;2.00;;;11.50;99.90;;;;;;5078388;28;20189;-72
2023/03/23 04:00:14;;;;;;;2.00;1.80;;;11.60;99.90;;;;;;5071856;28;20408;-72
2023/03/23 04:02:53;;;;;;;1.60;1.50;;;11.50;99.90;;;;;;5048046;28;20527;-73
2023/03/23 04:05:20;;;;;;;1.90;1.70;;;11.50;99.90;;;;;;5071400;28;20850;-74
2023/03/23 04:07:49;;;;;;;3.37;1.97;;;11.50;99.90;;;;;;5066635;28;20400;-72
2023/03/23 04:10:15;;;;;;;2.03;1.80;;;11.50;99.90;;;;;;5071406;28;20407;-73
2023/03/23 04:12:41;;;;;;;3.37;2.07;;;11.50;99.90;;;;;;5071065;28;20447;-73
2023/03/23 04:15:07;;;;;;;2.40;2.20;;;11.50;99.90;;;;;;5071296;28;20421;-72
2023/03/23 04:17:34;;;;;;;2.07;1.87;;;11.50;99.90;;;;;;5071086;28;20225;-72
2023/03/23 04:19:59;;;;;;;5.63;1.43;;;11.40;99.90;;;;;;5071693;28;20914;-73
2023/03/23 04:22:29;;;;;;;1.70;1.60;;;11.40;99.90;;;;;;5072228;28;20523;-72
2023/03/23 04:25:00;;;;;;;1.93;1.77;;;11.50;99.90;;;;;;5073964;28;20902;-73
2023/03/23 04:27:27;;;;;;;8.90;2.33;;;11.50;99.90;;;;;;5067748;28;20526;-74
2023/03/23 04:29:54;;;;;;;2.40;2.00;;;11.50;99.90;;;;;;5074428;28;20412;-73
2023/03/23 04:32:21;;;;;;;2.20;2.00;;;11.50;99.90;;;;;;5072330;28;20513;-73
2023/03/23 04:34:46;;;;;;;2.30;2.10;;;11.50;99.90;;;;;;5071735;28;20417;-73
2023/03/23 04:37:13;;;;;;;2.10;1.90;;;11.50;99.90;;;;;;5071443;28;20451;-73
2023/03/23 04:39:39;;;;;;;2.60;1.70;;;11.50;99.90;;;;;;5071592;28;20174;-73
2023/03/23 04:42:05;;;;;;;3.10;1.93;;;11.50;99.90;;;;;;5071666;28;20485;-72
2023/03/23 04:44:32;;;;;;;2.13;1.93;;;11.50;99.90;;;;;;5071219;28;20902;-72
2023/03/23 04:47:01;;;;;;;2.13;1.90;;;11.40;99.90;;;;;;5070750;28;20853;-73
2023/03/23 04:49:26;;;;;;;1.60;1.50;;;11.40;99.90;;;;;;5071739;28;20412;-73
2023/03/23 04:51:52;;;;;;;2.27;1.60;;;11.30;99.90;;;;;;5071206;28;20577;-73
2023/03/23 04:54:18;;;;;;;3.33;2.87;;;11.30;99.90;;;;;;5071386;28;20174;-73
2023/03/23 04:56:43;;;;;;;2.13;1.67;;;11.20;99.90;;;;;;5071327;28;20158;-73
2023/03/23 04:59:09;;;;;;;2.93;2.60;;;11.20;99.90;;;;;;5071414;28;20455;-74
2023/03/23 05:01:37;;;;;;;2.70;2.20;;;11.20;99.90;;;;;;5071211;28;20198;-73
2023/03/23 05:04:03;;;;;;;3.37;2.40;;;11.20;99.90;;;;;;5071218;28;20540;-74
2023/03/23 05:06:28;;;;;;;3.17;1.97;;;11.10;99.90;;;;;;5071229;28;20401;-74
2023/03/23 05:08:54;;;;;;;3.10;2.40;;;11.10;99.90;;;;;;5071062;28;20581;-74
2023/03/23 05:11:20;;;;;;;3.00;2.73;;;11.10;99.90;;;;;;5070856;28;20170;-74
2023/03/23 05:13:46;;;;;;;3.47;2.83;;;11.10;99.90;;;;;;5082979;22;20214;-74
2023/03/23 05:16:12;;;;;;;3.63;2.40;;;11.10;99.90;;;;;;5069249;28;20404;-74
2023/03/23 05:18:37;;;;;;;2.43;2.23;;;11.10;99.90;;;;;;5072371;28;20283;-74
2023/03/23 05:21:04;;;;;;;2.27;2.07;;;11.10;99.90;;;;;;5070384;28;20253;-74
2023/03/23 05:23:30;;;;;;;2.07;1.80;;;11.00;99.90;;;;;;5070807;28;20190;-74
2023/03/23 05:26:00;;;;;;;2.70;2.50;;;11.00;99.90;;;;;;5070366;28;20850;-73
2023/03/23 05:28:30;;;;;;;3.50;2.00;;;11.00;99.90;;;;;;5062962;28;20423;-74
2023/03/23 05:30:56;;;;;;;4.10;2.37;;;11.00;99.90;;;;;;5070651;28;20408;-73
2023/03/23 05:33:22;;;;;;;2.37;2.17;;;11.00;99.90;;;;;;5070357;28;20882;-73
2023/03/23 05:35:48;;;;;;;2.03;1.83;;;11.00;99.90;;;;;;5070210;28;20508;-72
2023/03/23 05:38:16;;;;;;;3.27;2.50;;;10.90;99.90;;;;;;5070194;28;20497;-73
2023/03/23 05:40:42;;;;;;;3.13;1.93;;;10.80;99.90;;;;;;5070323;28;20405;-73
2023/03/23 05:43:08;;;;;;;3.33;1.80;;;10.90;99.90;;;;;;5070190;28;20970;-74
2023/03/23 05:45:34;;;;;;;3.43;3.13;;;10.90;99.90;;;;;;5070286;28;20423;-74
2023/03/23 05:48:00;;;;;;;2.33;2.13;;;10.90;99.90;;;;;;5065081;28;20430;-74
2023/03/23 05:50:27;;;;;;;2.70;1.97;;;10.80;99.90;;;;;;5070406;28;21046;-74
2023/03/23 05:52:54;;;;;;;2.60;1.70;;;10.80;99.90;;;;;;5070244;28;20436;-75
2023/03/23 05:55:19;;;;;;;1.93;1.80;;;10.80;99.90;;;;;;5070124;28;20867;-73
2023/03/23 05:57:45;;;;;;;4.10;2.20;;;10.80;99.90;;;;;;5070221;28;20460;-73
2023/03/23 06:00:19;;;;;;;3.30;1.77;;;10.70;99.90;;;;;;5070976;28;20232;-73
2023/03/23 06:02:46;;;;;;;3.10;2.70;;;10.70;99.90;;;;;;5074396;28;20182;-73
2023/03/23 06:05:13;;;;;;;4.10;2.50;;;10.70;99.90;;;;;;5073956;28;20423;-74
2023/03/23 06:07:39;;;;;;;3.30;2.67;;;10.60;99.90;;;;;;5074158;28;20448;-73
2023/03/23 06:10:06;;;;;;;2.87;2.23;;;10.60;99.90;;;;;;5074061;28;20914;-73
2023/03/23 06:12:32;;;;;;;1.70;1.50;;;10.60;99.90;;;;;;5073842;28;20236;-73
2023/03/23 06:14:58;;;;;;;3.80;2.20;;;10.60;99.90;;;;;;5073840;28;20844;-73
2023/03/23 06:17:25;;;;;;;6.13;1.93;;;10.60;99.90;;;;;;5073842;28;20454;-72
2023/03/23 06:19:50;;;;;;;2.10;1.67;;;10.60;99.90;;;;;;5073713;28;20465;-72
2023/03/23 06:22:17;;;;;;;2.63;1.63;;;10.60;99.90;;;;;;5073284;28;20448;-72
2023/03/23 06:24:44;;;;;;;2.00;1.70;;;10.60;99.90;;;;;;5075768;28;20177;-73
2023/03/23 06:27:10;;;;;;;4.07;2.50;;;10.60;99.90;;;;;;5074806;28;20997;-73
2023/03/23 06:29:36;;;;;;;2.10;1.83;;;10.50;99.90;;;;;;5076260;28;20444;-73
2023/03/23 06:32:04;;;;;;;5.00;2.23;;;10.60;99.90;;;;;;5057771;28;20792;-73
2023/03/23 06:34:30;;;;;;;3.00;1.80;;;10.60;99.90;;;;;;5073669;28;20497;-73
2023/03/23 06:36:57;;;;;;;1.80;1.70;;;10.60;99.90;;;;;;5073149;28;20467;-73
2023/03/23 06:39:22;;;;;;;1.97;1.77;;;10.60;99.90;;;;;;5073712;28;20436;-72
2023/03/23 06:41:48;;;;;;;3.07;1.97;;;10.70;99.90;;;;;;5060224;28;20459;-76
2023/03/23 06:44:14;;;;;;;4.70;2.13;;;10.70;99.90;;;;;;5077043;28;20206;-72
2023/03/23 06:46:41;;;;;;;2.70;1.80;;;10.60;99.90;;;;;;5074776;28;20457;-73
2023/03/23 06:49:08;;;;;;;2.87;1.70;;;10.70;99.90;;;;;;5073376;28;20562;-72
2023/03/23 06:51:34;;;;;;;3.07;1.77;;;10.70;99.90;;;;;;5073653;28;20401;-73
2023/03/23 06:54:00;;;;;;;3.03;2.03;;;10.70;99.90;;;;;;5073383;28;20424;-73
2023/03/23 06:56:26;;;;;;;4.10;1.40;;;10.70;99.90;;;;;;5073359;28;20164;-73
2023/03/23 06:58:52;;;;;;;1.60;1.47;;;10.70;99.90;;;;;;5073150;28;20198;-73
2023/03/23 07:01:18;;;;;;;2.53;2.30;;;10.70;99.90;;;;;;5073208;28;20415;-72
2023/03/23 07:03:44;;;;;;;3.40;1.53;;;10.70;99.90;;;;;;5067635;28;20424;-73
2023/03/23 07:06:10;;;;;;;3.00;2.70;;;10.80;99.90;;;;;;5072628;28;20190;-73
2023/03/23 07:08:36;;;;;;;4.17;1.63;;;10.90;99.90;;;;;;5070791;28;20440;-73
2023/03/23 07:11:03;;;;;;;3.47;2.47;;;10.80;99.90;;;;;;5068182;28;20448;-71
2023/03/23 07:13:28;;;;;;;22.23;11.60;;;10.80;99.90;;;;;;5072857;28;20543;-70
2023/03/23 07:15:54;;;;;;;5.70;4.60;;;10.80;99.90;;;;;;5073021;28;20854;-73
2023/03/23 07:18:20;;;;;;;4.20;1.93;;;10.80;99.90;;;;;;5066968;28;20186;-72
2023/03/23 07:20:50;;;;;;;3.33;2.07;;;10.80;99.90;;;;;;5072747;28;20400;-73
2023/03/23 07:23:16;;;;;;;3.27;2.00;;;10.80;99.90;;;;;;5072570;28;20194;-73
2023/03/23 07:25:43;;;;;;;3.70;2.20;;;10.80;99.90;;;;;;5070419;28;20781;-73
2023/03/23 07:28:08;;;;;;;3.10;2.00;;;10.90;99.90;;;;;;5072737;28;20423;-74
2023/03/23 07:30:35;;;;;;;2.10;1.90;;;10.90;99.90;;;;;;5072784;28;20854;-75
2023/03/23 07:33:05;;;;;;;3.60;1.87;;;10.90;99.90;;;;;;5072569;28;20235;-74
2023/03/23 07:35:31;;;;;;;3.63;2.30;;;10.90;99.90;;;;;;5072434;28;20772;-72
2023/03/23 07:37:56;;;;;;;5.53;1.93;;;10.90;99.90;;;;;;5072133;28;20895;-73
2023/03/23 07:40:22;;;;;;;3.27;2.10;;;11.00;99.90;;;;;;5072316;28;20484;-73
2023/03/23 07:42:56;;;;;;;2.53;2.10;;;11.00;99.90;;;;;;5070669;28;20649;-73
2023/03/23 07:45:21;;;;;;;5.93;2.37;;;11.10;99.90;;;;;;5072641;28;20633;-73
2023/03/23 07:47:47;;;;;;;5.50;2.30;;;11.00;99.90;;;;;;5072869;28;20411;-73
2023/03/23 07:50:13;;;;;;;2.40;1.90;;;11.00;99.90;;;;;;5073152;28;20658;-72
2023/03/23 07:52:41;;;;;;;3.37;2.97;;;11.10;99.90;;;;;;5073406;28;20281;-72
2023/03/23 07:55:08;;;;;;;4.13;3.00;;;11.30;99.90;;;;;;5075508;28;20412;-74
2023/03/23 07:57:34;;;;;;;5.13;4.30;;;11.50;99.90;;;;;;5079502;28;20447;-72
2023/03/23 08:00:03;;;;;;;5.33;4.37;;;11.60;99.90;;;;;;5079884;28;20971;-72
2023/03/23 08:02:31;;;;;;;9.50;4.23;;;11.70;99.90;;;;;;5080840;28;20432;-73
2023/03/23 08:05:00;;;;;;;3.53;2.60;;;11.50;99.90;;;;;;5080615;28;20412;-72
2023/03/23 08:07:26;;;;;;;18.40;11.43;;;11.50;99.90;;;;;;5071348;28;20409;-72
2023/03/23 08:09:52;;;;;;;4.97;1.80;;;11.60;99.90;;;;;;5078522;28;20477;-72
2023/03/23 08:12:17;;;;;;;4.23;2.47;;;11.60;99.90;;;;;;5072756;28;20197;-71
2023/03/23 08:14:43;;;;;;;3.00;1.83;;;11.50;99.90;;;;;;5074637;28;20408;-74
2023/03/23 08:17:09;;;;;;;3.70;2.10;;;11.60;99.90;;;;;;5073565;28;20190;-71
2023/03/23 08:19:36;;;;;;;5.73;2.63;;;11.60;99.90;;;;;;5072842;28;20174;-72
2023/03/23 08:22:03;;;;;;;6.90;3.57;;;11.60;99.90;;;;;;5071986;28;20201;-72
2023/03/23 08:24:30;;;;;;;4.17;3.10;;;11.70;99.90;;;;;;5071777;28;20412;-73
2023/03/23 08:26:56;;;;;;;2.57;2.30;;;11.70;99.90;;;;;;5067269;28;20436;-71
2023/03/23 08:29:22;;;;;;;2.77;2.00;;;11.60;99.90;;;;;;5072232;28;20849;-72
2023/03/23 08:31:47;;;;;;;2.43;1.97;;;11.60;99.90;;;;;;5072095;28;20536;-72
2023/03/23 08:34:13;;;;;;;3.40;2.43;;;11.60;99.90;;;;;;5072258;28;20600;-73
2023/03/23 08:36:39;;;;;;;8.00;5.43;;;11.60;99.90;;;;;;5055595;28;20173;-72
2023/03/23 08:39:05;;;;;;;3.00;2.70;;;11.60;99.90;;;;;;5074456;28;20483;-71
2023/03/23 08:41:32;;;;;;;2.10;1.90;;;11.60;99.90;;;;;;5073678;28;20416;-72
2023/03/23 08:43:57;;;;;;;4.63;2.93;;;11.60;99.90;;;;;;5071611;28;20425;-72
2023/03/23 08:46:23;;;;;;;6.30;5.47;;;11.70;99.90;;;;;;5071295;28;20906;-72
2023/03/23 08:48:49;;;;;;;7.03;3.80;;;11.80;99.90;;;;;;5071683;28;20177;-71
2023/03/23 08:51:15;;;;;;;3.70;3.10;;;12.00;99.90;;;;;;5071428;28;20417;-71
2023/03/23 08:53:42;;;;;;;3.90;3.27;;;11.90;99.90;;;;;;5071686;28;20247;-72
2023/03/23 08:56:09;;;;;;;2.03;1.73;;;12.00;99.90;;;;;;5071015;28;20689;-73
2023/03/23 08:58:36;;;;;;;4.50;2.20;;;11.90;99.90;;;;;;5070767;28;20962;-73
2023/03/23 09:01:04;;;;;;;2.30;2.10;;;11.90;99.90;;;;;;5071332;28;20412;-74
2023/03/23 09:03:30;;;;;;;4.47;2.10;;;12.00;99.90;;;;;;5070946;28;20433;-73
2023/03/23 09:06:01;;;;;;;3.30;1.93;;;12.10;99.90;;;;;;5070840;28;20977;-73
2023/03/23 09:08:28;;;;;;;2.67;1.90;;;12.10;99.90;;;;;;5067704;28;20547;-73
2023/03/23 09:11:08;;;;;;;3.67;2.33;;;12.20;99.90;;;;;;5070968;28;20417;-73
2023/03/23 09:13:35;;;;;;;3.03;1.70;;;12.30;99.90;;;;;;5067652;28;20452;-73
2023/03/23 09:16:01;;;;;;;1.80;1.67;;;12.40;99.90;;;;;;5070703;28;20791;-73
2023/03/23 09:18:27;;;;;;;2.17;1.53;;;12.40;99.90;;;;;;5070155;28;20859;-74
2023/03/23 09:20:54;;;;;;;2.57;2.33;;;12.30;99.90;;;;;;5067586;28;20406;-74
2023/03/23 09:23:20;;;;;;;2.87;2.00;;;12.30;99.90;;;;;;5070032;28;20425;-73
2023/03/23 09:25:46;;;;;;;2.50;1.97;;;12.40;99.90;;;;;;5065648;28;20463;-74
2023/03/23 09:28:12;;;;;;;2.67;2.00;;;12.50;99.90;;;;;;5070635;28;20421;-73
2023/03/23 09:30:40;;;;;;;1.83;1.50;;;12.50;99.90;;;;;;5071022;28;20507;-74
2023/03/23 09:33:07;;;;;;;2.53;1.87;;;12.60;99.90;;;;;;5070599;28;20277;-74
2023/03/23 09:35:35;;;;;;;2.80;1.90;;;12.70;99.90;;;;;;5072140;28;20839;-74
2023/03/23 09:38:01;;;;;;;1.70;1.50;;;13.00;99.90;;;;;;5074500;28;20526;-74
2023/03/23 09:40:41;;;;;;;3.70;1.50;;;13.10;99.90;;;;;;5076511;28;20450;-74
2023/03/23 09:43:09;;;;;;;1.83;1.67;;;13.20;99.90;;;;;;5076413;28;20441;-75
2023/03/23 09:45:54;;;;;;;2.27;1.60;;;13.40;99.90;;;;;;5075156;28;20794;-74
2023/03/23 09:48:43;;;;;;;1.73;1.63;;;13.50;99.90;;;;;;5074345;28;20421;-74
2023/03/23 09:51:17;;;;;;;1.73;1.30;;;13.60;99.90;;;;;;5074439;28;20441;-73
2023/03/23 09:53:48;;;;;;;2.00;1.80;;;13.70;99.90;;;;;;5074349;28;20516;-73
2023/03/23 09:56:16;;;;;;;1.87;1.47;;;14.00;99.90;;;;;;5074253;28;20711;-73
2023/03/23 09:58:53;;;;;;;3.00;1.50;;;13.80;99.90;;;;;;5076135;28;21034;-73
2023/03/23 10:01:41;;;;;;;2.00;1.80;;;14.00;99.90;;;;;;5073376;28;21158;-73
2023/03/23 10:04:12;;;;;;;2.03;1.83;;;13.90;99.90;;;;;;5071821;28;20447;-73
2023/03/23 10:06:38;;;;;;;2.07;1.40;;;14.00;99.90;;;;;;5073952;28;20400;-73
2023/03/23 10:09:05;;;;;;;6.23;1.37;;;14.10;99.90;;;;;;5074019;28;20409;-74
2023/03/23 10:11:31;;;;;;;3.13;1.70;;;14.10;99.90;;;;;;5073792;28;20711;-72
2023/03/23 10:14:07;;;;;;;2.53;1.70;;;14.10;99.90;;;;;;5073756;28;20821;-73
2023/03/23 10:16:38;;;;;;;2.30;1.90;;;13.90;99.90;;;;;;5067477;28;20413;-73
2023/03/23 10:19:31;;;;;;;1.50;1.40;;;13.80;99.90;;;;;;5070975;28;20452;-73
2023/03/23 10:22:08;;;;;;;1.40;1.30;;;13.80;99.90;;;;;;5073530;28;20397;-73
2023/03/23 10:25:02;;;;;;;2.40;1.40;;;13.90;99.90;;;;;;5073179;28;20478;-74
2023/03/23 10:27:38;;;;;;;3.17;1.63;;;14.00;99.90;;;;;;5064545;28;20564;-73
2023/03/23 10:30:11;;;;;;;4.40;1.77;;;14.00;99.90;;;;;;5073691;28;20517;-72
2023/03/23 10:32:44;;;;;;;2.70;1.57;;;14.20;99.90;;;;;;5055240;28;20441;-72
2023/03/23 10:36:17;;;;;;;1.80;1.70;;;14.30;99.90;;;;;;5073217;28;20423;-72
2023/03/23 10:38:52;;;;;;;2.10;1.60;;;14.40;99.90;;;;;;4979031;28;20475;-73
2023/03/23 10:41:19;;;;;;;2.60;1.30;;;14.50;99.90;;;;;;5043572;28;20435;-74
2023/03/23 10:43:49;;;;;;;3.20;1.20;;;14.40;99.90;;;;;;5073385;28;20432;-72
2023/03/23 10:46:27;;;;;;;5.23;1.90;;;14.60;99.90;;;;;;5072600;28;20480;-72
2023/03/23 10:48:56;;;;;;;1.53;1.43;;;14.70;99.90;;;;;;5073285;28;20409;-72
2023/03/23 10:51:27;;;;;;;1.37;1.17;;;14.70;99.90;;;;;;5073084;28;20413;-73
2023/03/23 10:53:58;;;;;;;4.60;2.13;;;14.60;99.90;;;;;;5073149;28;20414;-72
2023/03/23 10:56:27;;;;;;;2.40;1.83;;;14.60;99.90;;;;;;5055017;28;20397;-72
2023/03/23 10:58:53;;;;;;;2.63;1.33;;;14.50;99.90;;;;;;5073038;28;20461;-73
2023/03/23 11:01:28;;;;;;;2.80;1.73;;;14.50;99.90;;;;;;5072854;28;20417;-71
2023/03/23 11:03:54;;;;;;;1.73;1.60;;;14.60;99.90;;;;;;5072848;28;20420;-73
2023/03/23 11:06:29;;;;;;;1.93;1.40;;;14.50;99.90;;;;;;5072790;28;20465;-72
2023/03/23 11:09:00;;;;;;;5.60;2.20;;;14.40;99.90;;;;;;5068760;28;20500;-73
2023/03/23 11:11:31;;;;;;;2.57;1.73;;;14.60;99.90;;;;;;5056758;28;20409;-73
2023/03/23 11:14:01;;;;;;;2.63;1.60;;;14.60;99.90;;;;;;5069195;28;20494;-73
2023/03/23 11:16:33;;;;;;;1.77;1.40;;;14.50;99.90;;;;;;5087337;22;20455;-74
2023/03/23 11:19:01;;;;;;;2.17;1.60;;;14.60;99.90;;;;;;5072187;28;20461;-74
2023/03/23 11:21:27;;;;;;;3.13;2.33;;;14.60;99.90;;;;;;5072595;28;20425;-74
2023/03/23 11:23:57;;;;;;;5.67;2.33;;;14.60;99.90;;;;;;5072645;28;20812;-73
2023/03/23 11:26:31;;;;;;;2.33;1.60;;;14.60;99.90;;;;;;5072934;28;20705;-73
2023/03/23 11:29:10;;;;;;;2.20;1.30;;;14.50;99.90;;;;;;5068799;28;20401;-74
2023/03/23 11:31:41;;;;;;;2.50;1.70;;;14.60;99.90;;;;;;5071840;28;20811;-74
2023/03/23 11:34:16;;;;;;;3.33;1.60;;;14.70;99.90;;;;;;5072675;28;20898;-74
2023/03/23 11:36:48;;;;;;;2.83;2.00;;;14.90;99.90;;;;;;5072749;28;20799;-74
2023/03/23 11:39:34;;;;;;;1.37;1.27;;;14.90;99.90;;;;;;5072597;28;20421;-74
2023/03/23 11:42:11;;;;;;;2.67;1.63;;;15.00;99.90;;;;;;5047118;28;20525;-74
2023/03/23 11:44:42;;;;;;;4.30;1.30;;;15.10;99.90;;;;;;5072845;28;20393;-74
2023/03/23 11:47:27;;;;;;;2.70;1.77;;;15.20;99.90;;;;;;5073084;28;20441;-75
2023/03/23 11:50:11;;;;;;;2.13;1.40;;;15.10;99.90;;;;;;5074281;28;20454;-74
2023/03/23 11:52:52;;;;;;;2.30;1.50;;;15.10;99.90;;;;;;5055369;28;20413;-74
2023/03/23 11:55:53;;;;;;;3.57;1.30;;;15.30;99.90;;;;;;5057449;28;20410;-76
2023/03/23 11:58:20;;;;;;;1.53;1.33;;;15.20;99.90;;;;;;5071684;28;20887;-73
2023/03/23 12:01:16;;;;;;;2.07;1.37;;;15.20;99.90;;;;;;5065802;28;20438;-73
2023/03/23 12:04:11;;;;;;;4.70;1.63;;;15.40;99.90;;;;;;5069346;28;20904;-74
2023/03/23 12:06:54;;;;;;;2.33;1.40;;;15.50;99.90;;;;;;5049376;28;20427;-75
2023/03/23 12:09:34;;;;;;;6.90;2.00;;;15.30;99.90;;;;;;5074034;28;21066;-74
2023/03/23 12:12:02;;;;;;;1.80;1.30;;;15.50;99.90;;;;;;5074299;28;20437;-75
2023/03/23 12:14:58;;;;;;;2.70;1.60;;;15.50;99.90;;;;;;5073270;28;20414;-74
2023/03/23 12:17:40;;;;;;;1.50;1.30;;;15.30;99.90;;;;;;5030007;28;20529;-74
2023/03/23 12:20:27;;;;;;;2.60;1.40;;;15.10;99.90;;;;;;5071566;28;20387;-74
2023/03/23 12:23:02;;;;;;;1.93;1.73;;;15.10;99.90;;;;;;5074289;28;20711;-74
2023/03/23 12:25:28;;;;;;;2.30;1.57;;;15.30;99.90;;;;;;5064861;28;20422;-75
2023/03/23 12:28:20;;;;;;;2.27;1.57;;;15.40;99.90;;;;;;5071345;28;20476;-73
2023/03/23 12:30:57;;;;;;;1.60;1.37;;;15.40;99.90;;;;;;5051943;28;20425;-74
2023/03/23 12:33:55;;;;;;;2.40;1.20;;;15.30;99.90;;;;;;5071327;28;20483;-74
2023/03/23 12:36:27;;;;;;;1.80;1.30;;;15.40;99.90;;;;;;5071061;28;20421;-74
2023/03/23 12:39:02;;;;;;;3.00;1.17;;;15.40;99.90;;;;;;5071997;28;20812;-74
2023/03/23 12:42:03;;;;;;;1.33;1.23;;;15.40;99.90;;;;;;5065929;28;20910;-75
2023/03/23 12:44:46;;;;;;;2.00;1.37;;;15.40;99.90;;;;;;5063726;28;20413;-75
2023/03/23 12:47:31;;;;;;;2.03;1.60;;;15.30;99.90;;;;;;5071058;28;20443;-75
2023/03/23 12:50:07;;;;;;;1.67;1.50;;;15.30;99.90;;;;;;5071273;28;20401;-75
2023/03/23 12:52:52;;;;;;;1.47;1.37;;;15.40;99.90;;;;;;5064881;28;20875;-74
2023/03/23 12:55:25;;;;;;;3.23;1.20;;;15.30;99.90;;;;;;5073445;28;20920;-75
2023/03/23 12:58:20;;;;;;;1.30;1.20;;;15.40;99.90;;;;;;5077805;22;20483;-75
2023/03/23 13:00:53;;;;;;;2.70;1.70;;;15.60;99.90;;;;;;5041540;28;20536;-75
2023/03/23 13:03:40;;;;;;;1.80;1.50;;;15.70;99.90;;;;;;5071470;28;20435;-74